sensor_id;sensor_type;location;lat;lon;timestamp;P1;durP1;ratioP1;P2;durP2;ratioP2
67979;SDS011;54760;47.490;19.030;2022-12-07T00:01:56;17.58;;;9.38;;
67979;SDS011;54760;47.490;19.030;2022-12-07T00:04:21;14.25;;;9.32;;
67979;SDS011;54760;47.490;19.030;2022-12-07T00:06:50;17.48;;;9.10;;
67979;SDS011;54760;47.490;19.030;2022-12-07T00:09:17;13.23;;;7.80;;
67979;SDS011;54760;47.490;19.030;2022-12-07T00:11:43;15.32;;;9.38;;
67979;SDS011;54760;47.490;19.030;2022-12-07T00:14:10;13.93;;;9.10;;
67979;SDS011;54760;47.490;19.030;2022-12-07T00:16:38;15.32;;;9.60;;
67979;SDS011;54760;47.490;19.030;2022-12-07T00:19:04;15.23;;;9.70;;
67979;SDS011;54760;47.490;19.030;2022-12-07T00:21:38;16.58;;;8.70;;
67979;SDS011;54760;47.490;19.030;2022-12-07T00:24:04;14.48;;;9.23;;
67979;SDS011;54760;47.490;19.030;2022-12-07T00:26:37;15.88;;;8.80;;
67979;SDS011;54760;47.490;19.030;2022-12-07T00:29:05;11.18;;;8.07;;
67979;SDS011;54760;47.490;19.030;2022-12-07T00:31:32;13.65;;;9.18;;
67979;SDS011;54760;47.490;19.030;2022-12-07T00:34:03;13.48;;;8.77;;
67979;SDS011;54760;47.490;19.030;2022-12-07T00:36:29;15.25;;;8.95;;
67979;SDS011;54760;47.490;19.030;2022-12-07T00:38:54;15.05;;;9.50;;
67979;SDS011;54760;47.490;19.030;2022-12-07T00:41:23;13.88;;;9.00;;
67979;SDS011;54760;47.490;19.030;2022-12-07T00:43:49;14.02;;;8.52;;
67979;SDS011;54760;47.490;19.030;2022-12-07T00:46:16;14.55;;;8.63;;
67979;SDS011;54760;47.490;19.030;2022-12-07T00:48:42;16.33;;;9.30;;
67979;SDS011;54760;47.490;19.030;2022-12-07T00:51:09;15.18;;;8.63;;
67979;SDS011;54760;47.490;19.030;2022-12-07T00:53:36;11.82;;;7.87;;
67979;SDS011;54760;47.490;19.030;2022-12-07T00:56:08;15.63;;;9.00;;
67979;SDS011;54760;47.490;19.030;2022-12-07T00:58:36;13.82;;;8.82;;
67979;SDS011;54760;47.490;19.030;2022-12-07T01:01:03;14.50;;;9.15;;
67979;SDS011;54760;47.490;19.030;2022-12-07T01:03:30;16.20;;;9.73;;
67979;SDS011;54760;47.490;19.030;2022-12-07T01:05:56;15.65;;;9.10;;
67979;SDS011;54760;47.490;19.030;2022-12-07T01:08:23;14.57;;;8.52;;
67979;SDS011;54760;47.490;19.030;2022-12-07T01:10:49;12.23;;;8.63;;
67979;SDS011;54760;47.490;19.030;2022-12-07T01:13:22;13.45;;;8.32;;
67979;SDS011;54760;47.490;19.030;2022-12-07T01:15:47;14.87;;;9.10;;
67979;SDS011;54760;47.490;19.030;2022-12-07T01:18:13;14.63;;;8.88;;
67979;SDS011;54760;47.490;19.030;2022-12-07T01:20:38;16.23;;;9.48;;
67979;SDS011;54760;47.490;19.030;2022-12-07T01:23:03;17.40;;;8.73;;
67979;SDS011;54760;47.490;19.030;2022-12-07T01:25:29;13.05;;;8.90;;
67979;SDS011;54760;47.490;19.030;2022-12-07T01:27:55;12.10;;;8.13;;
67979;SDS011;54760;47.490;19.030;2022-12-07T01:30:20;13.52;;;7.72;;
67979;SDS011;54760;47.490;19.030;2022-12-07T01:32:45;14.65;;;8.05;;
67979;SDS011;54760;47.490;19.030;2022-12-07T01:35:11;14.27;;;8.30;;
67979;SDS011;54760;47.490;19.030;2022-12-07T01:37:36;11.63;;;8.00;;
67979;SDS011;54760;47.490;19.030;2022-12-07T01:40:06;13.43;;;8.13;;
67979;SDS011;54760;47.490;19.030;2022-12-07T01:42:33;11.73;;;8.30;;
67979;SDS011;54760;47.490;19.030;2022-12-07T01:47:43;12.00;;;7.78;;
67979;SDS011;54760;47.490;19.030;2022-12-07T01:50:15;13.82;;;8.48;;
67979;SDS011;54760;47.490;19.030;2022-12-07T01:52:41;12.02;;;7.80;;
67979;SDS011;54760;47.490;19.030;2022-12-07T01:55:10;11.68;;;7.55;;
67979;SDS011;54760;47.490;19.030;2022-12-07T01:57:40;11.05;;;7.30;;
67979;SDS011;54760;47.490;19.030;2022-12-07T02:00:07;11.40;;;7.20;;
67979;SDS011;54760;47.490;19.030;2022-12-07T02:02:35;12.60;;;7.07;;
67979;SDS011;54760;47.490;19.030;2022-12-07T02:05:06;11.18;;;6.32;;
67979;SDS011;54760;47.490;19.030;2022-12-07T02:07:32;9.63;;;6.50;;
67979;SDS011;54760;47.490;19.030;2022-12-07T02:10:20;9.82;;;6.10;;
67979;SDS011;54760;47.490;19.030;2022-12-07T02:31:39;11.95;;;7.18;;
67979;SDS011;54760;47.490;19.030;2022-12-07T02:34:13;11.48;;;7.22;;
67979;SDS011;54760;47.490;19.030;2022-12-07T02:36:51;11.63;;;7.35;;
67979;SDS011;54760;47.490;19.030;2022-12-07T02:39:26;13.50;;;7.75;;
67979;SDS011;54760;47.490;19.030;2022-12-07T02:42:01;10.65;;;7.47;;
67979;SDS011;54760;47.490;19.030;2022-12-07T02:44:31;13.70;;;7.62;;
67979;SDS011;54760;47.490;19.030;2022-12-07T02:47:00;11.32;;;7.25;;
67979;SDS011;54760;47.490;19.030;2022-12-07T02:49:29;11.15;;;7.22;;
67979;SDS011;54760;47.490;19.030;2022-12-07T02:51:55;12.35;;;7.25;;
67979;SDS011;54760;47.490;19.030;2022-12-07T02:54:21;10.75;;;7.22;;
67979;SDS011;54760;47.490;19.030;2022-12-07T02:59:57;10.70;;;6.93;;
67979;SDS011;54760;47.490;19.030;2022-12-07T03:07:54;11.68;;;7.68;;
67979;SDS011;54760;47.490;19.030;2022-12-07T03:10:56;14.60;;;7.55;;
67979;SDS011;54760;47.490;19.030;2022-12-07T03:13:38;14.52;;;7.40;;
67979;SDS011;54760;47.490;19.030;2022-12-07T03:16:18;13.18;;;7.72;;
67979;SDS011;54760;47.490;19.030;2022-12-07T03:18:52;12.40;;;7.55;;
67979;SDS011;54760;47.490;19.030;2022-12-07T03:21:27;11.52;;;7.15;;
67979;SDS011;54760;47.490;19.030;2022-12-07T03:23:58;11.90;;;7.40;;
67979;SDS011;54760;47.490;19.030;2022-12-07T03:26:30;11.45;;;7.40;;
67979;SDS011;54760;47.490;19.030;2022-12-07T03:29:00;10.73;;;7.15;;
67979;SDS011;54760;47.490;19.030;2022-12-07T03:31:34;10.52;;;7.22;;
67979;SDS011;54760;47.490;19.030;2022-12-07T03:34:06;11.48;;;7.15;;
67979;SDS011;54760;47.490;19.030;2022-12-07T03:36:41;11.50;;;7.20;;
67979;SDS011;54760;47.490;19.030;2022-12-07T03:39:17;9.85;;;6.85;;
67979;SDS011;54760;47.490;19.030;2022-12-07T03:41:52;13.13;;;7.78;;
67979;SDS011;54760;47.490;19.030;2022-12-07T03:44:19;12.18;;;7.25;;
67979;SDS011;54760;47.490;19.030;2022-12-07T03:54:47;10.82;;;7.60;;
67979;SDS011;54760;47.490;19.030;2022-12-07T03:57:41;16.80;;;7.97;;
67979;SDS011;54760;47.490;19.030;2022-12-07T04:00:08;11.48;;;7.25;;
67979;SDS011;54760;47.490;19.030;2022-12-07T04:02:35;12.27;;;7.37;;
67979;SDS011;54760;47.490;19.030;2022-12-07T04:05:01;10.43;;;7.22;;
67979;SDS011;54760;47.490;19.030;2022-12-07T04:07:27;13.27;;;7.97;;
67979;SDS011;54760;47.490;19.030;2022-12-07T04:09:53;11.45;;;7.82;;
67979;SDS011;54760;47.490;19.030;2022-12-07T04:12:20;12.23;;;7.75;;
67979;SDS011;54760;47.490;19.030;2022-12-07T04:14:45;12.50;;;8.38;;
67979;SDS011;54760;47.490;19.030;2022-12-07T04:17:11;13.57;;;8.60;;
67979;SDS011;54760;47.490;19.030;2022-12-07T04:19:36;12.77;;;8.77;;
67979;SDS011;54760;47.490;19.030;2022-12-07T04:22:02;13.10;;;8.98;;
67979;SDS011;54760;47.490;19.030;2022-12-07T04:24:29;12.90;;;8.60;;
67979;SDS011;54760;47.490;19.030;2022-12-07T04:26:54;12.18;;;8.15;;
67979;SDS011;54760;47.490;19.030;2022-12-07T04:29:20;10.13;;;7.60;;
67979;SDS011;54760;47.490;19.030;2022-12-07T04:31:46;10.85;;;7.03;;
67979;SDS011;54760;47.490;19.030;2022-12-07T04:34:12;10.52;;;7.07;;
67979;SDS011;54760;47.490;19.030;2022-12-07T04:36:38;10.88;;;6.62;;
67979;SDS011;54760;47.490;19.030;2022-12-07T04:39:04;9.50;;;6.50;;
67979;SDS011;54760;47.490;19.030;2022-12-07T04:41:31;11.70;;;8.38;;
67979;SDS011;54760;47.490;19.030;2022-12-07T04:43:58;11.55;;;7.22;;
67979;SDS011;54760;47.490;19.030;2022-12-07T04:46:26;11.60;;;7.53;;
67979;SDS011;54760;47.490;19.030;2022-12-07T04:48:52;10.57;;;6.40;;
67979;SDS011;54760;47.490;19.030;2022-12-07T04:51:20;10.52;;;7.18;;
67979;SDS011;54760;47.490;19.030;2022-12-07T04:53:47;10.90;;;7.50;;
67979;SDS011;54760;47.490;19.030;2022-12-07T04:56:13;9.38;;;7.12;;
67979;SDS011;54760;47.490;19.030;2022-12-07T04:58:39;9.75;;;5.95;;
67979;SDS011;54760;47.490;19.030;2022-12-07T05:01:05;9.55;;;6.80;;
67979;SDS011;54760;47.490;19.030;2022-12-07T05:03:30;8.60;;;6.25;;
67979;SDS011;54760;47.490;19.030;2022-12-07T05:05:56;11.43;;;6.65;;
67979;SDS011;54760;47.490;19.030;2022-12-07T05:08:21;7.90;;;5.82;;
67979;SDS011;54760;47.490;19.030;2022-12-07T05:10:48;9.77;;;5.80;;
67979;SDS011;54760;47.490;19.030;2022-12-07T05:13:14;7.72;;;5.70;;
67979;SDS011;54760;47.490;19.030;2022-12-07T05:15:39;8.48;;;5.72;;
67979;SDS011;54760;47.490;19.030;2022-12-07T05:18:05;8.80;;;6.22;;
67979;SDS011;54760;47.490;19.030;2022-12-07T05:20:31;11.30;;;6.28;;
67979;SDS011;54760;47.490;19.030;2022-12-07T05:22:56;9.40;;;6.78;;
67979;SDS011;54760;47.490;19.030;2022-12-07T05:25:23;9.55;;;7.12;;
67979;SDS011;54760;47.490;19.030;2022-12-07T05:27:49;15.77;;;8.25;;
67979;SDS011;54760;47.490;19.030;2022-12-07T05:30:14;12.45;;;8.57;;
67979;SDS011;54760;47.490;19.030;2022-12-07T05:32:39;9.18;;;6.85;;
67979;SDS011;54760;47.490;19.030;2022-12-07T05:35:05;10.38;;;6.55;;
67979;SDS011;54760;47.490;19.030;2022-12-07T05:37:30;12.45;;;7.90;;
67979;SDS011;54760;47.490;19.030;2022-12-07T05:39:56;15.70;;;10.13;;
67979;SDS011;54760;47.490;19.030;2022-12-07T05:42:21;17.05;;;11.05;;
67979;SDS011;54760;47.490;19.030;2022-12-07T05:44:47;14.60;;;10.73;;
67979;SDS011;54760;47.490;19.030;2022-12-07T05:47:13;18.83;;;11.25;;
67979;SDS011;54760;47.490;19.030;2022-12-07T05:49:39;15.13;;;10.20;;
67979;SDS011;54760;47.490;19.030;2022-12-07T05:52:05;13.73;;;9.93;;
67979;SDS011;54760;47.490;19.030;2022-12-07T05:54:30;13.27;;;10.13;;
67979;SDS011;54760;47.490;19.030;2022-12-07T05:56:56;13.32;;;8.68;;
67979;SDS011;54760;47.490;19.030;2022-12-07T05:59:21;14.00;;;9.35;;
67979;SDS011;54760;47.490;19.030;2022-12-07T06:04:23;16.62;;;10.50;;
67979;SDS011;54760;47.490;19.030;2022-12-07T06:06:49;17.30;;;11.30;;
67979;SDS011;54760;47.490;19.030;2022-12-07T06:09:15;19.42;;;11.70;;
67979;SDS011;54760;47.490;19.030;2022-12-07T06:11:41;21.58;;;12.40;;
67979;SDS011;54760;47.490;19.030;2022-12-07T06:14:25;16.92;;;10.73;;
67979;SDS011;54760;47.490;19.030;2022-12-07T06:16:51;19.87;;;11.70;;
67979;SDS011;54760;47.490;19.030;2022-12-07T06:19:16;14.63;;;10.77;;
67979;SDS011;54760;47.490;19.030;2022-12-07T06:21:42;16.27;;;11.07;;
67979;SDS011;54760;47.490;19.030;2022-12-07T06:24:08;17.33;;;10.05;;
67979;SDS011;54760;47.490;19.030;2022-12-07T06:26:36;16.98;;;8.52;;
67979;SDS011;54760;47.490;19.030;2022-12-07T06:29:01;12.18;;;8.43;;
67979;SDS011;54760;47.490;19.030;2022-12-07T06:31:27;12.15;;;8.25;;
67979;SDS011;54760;47.490;19.030;2022-12-07T06:33:56;12.23;;;8.57;;
67979;SDS011;54760;47.490;19.030;2022-12-07T06:36:25;11.63;;;7.68;;
67979;SDS011;54760;47.490;19.030;2022-12-07T06:38:50;16.35;;;9.32;;
67979;SDS011;54760;47.490;19.030;2022-12-07T06:41:16;14.50;;;9.77;;
67979;SDS011;54760;47.490;19.030;2022-12-07T06:43:41;13.62;;;9.80;;
67979;SDS011;54760;47.490;19.030;2022-12-07T06:46:07;14.87;;;9.90;;
67979;SDS011;54760;47.490;19.030;2022-12-07T06:48:32;15.07;;;9.20;;
67979;SDS011;54760;47.490;19.030;2022-12-07T06:50:58;14.05;;;9.15;;
67979;SDS011;54760;47.490;19.030;2022-12-07T06:53:24;14.13;;;9.75;;
67979;SDS011;54760;47.490;19.030;2022-12-07T06:55:49;11.90;;;8.32;;
67979;SDS011;54760;47.490;19.030;2022-12-07T06:58:14;13.95;;;9.13;;
67979;SDS011;54760;47.490;19.030;2022-12-07T07:00:40;15.05;;;9.40;;
67979;SDS011;54760;47.490;19.030;2022-12-07T07:03:06;12.88;;;8.57;;
67979;SDS011;54760;47.490;19.030;2022-12-07T07:05:31;12.95;;;9.35;;
67979;SDS011;54760;47.490;19.030;2022-12-07T07:07:56;16.58;;;9.27;;
67979;SDS011;54760;47.490;19.030;2022-12-07T07:10:22;14.98;;;9.70;;
67979;SDS011;54760;47.490;19.030;2022-12-07T07:12:47;14.75;;;9.77;;
67979;SDS011;54760;47.490;19.030;2022-12-07T07:15:12;14.90;;;9.90;;
67979;SDS011;54760;47.490;19.030;2022-12-07T07:17:38;15.95;;;10.73;;
67979;SDS011;54760;47.490;19.030;2022-12-07T07:20:03;19.00;;;10.52;;
67979;SDS011;54760;47.490;19.030;2022-12-07T07:22:29;14.48;;;10.07;;
67979;SDS011;54760;47.490;19.030;2022-12-07T07:24:55;15.88;;;10.30;;
67979;SDS011;54760;47.490;19.030;2022-12-07T07:27:20;15.55;;;9.90;;
67979;SDS011;54760;47.490;19.030;2022-12-07T07:29:45;15.57;;;11.12;;
67979;SDS011;54760;47.490;19.030;2022-12-07T07:32:11;15.80;;;9.98;;
67979;SDS011;54760;47.490;19.030;2022-12-07T07:34:37;17.30;;;10.30;;
67979;SDS011;54760;47.490;19.030;2022-12-07T07:37:02;15.73;;;10.18;;
67979;SDS011;54760;47.490;19.030;2022-12-07T07:39:27;13.95;;;9.98;;
67979;SDS011;54760;47.490;19.030;2022-12-07T07:41:53;15.70;;;9.55;;
67979;SDS011;54760;47.490;19.030;2022-12-07T07:44:18;13.52;;;9.80;;
67979;SDS011;54760;47.490;19.030;2022-12-07T07:46:43;12.73;;;9.02;;
67979;SDS011;54760;47.490;19.030;2022-12-07T07:49:09;15.75;;;9.93;;
67979;SDS011;54760;47.490;19.030;2022-12-07T07:51:35;14.15;;;9.35;;
67979;SDS011;54760;47.490;19.030;2022-12-07T07:54:01;17.85;;;10.50;;
67979;SDS011;54760;47.490;19.030;2022-12-07T07:56:26;16.50;;;9.40;;
67979;SDS011;54760;47.490;19.030;2022-12-07T07:58:52;15.00;;;9.40;;
67979;SDS011;54760;47.490;19.030;2022-12-07T08:01:17;17.83;;;9.43;;
67979;SDS011;54760;47.490;19.030;2022-12-07T08:03:44;14.98;;;9.65;;
67979;SDS011;54760;47.490;19.030;2022-12-07T08:06:11;12.65;;;9.10;;
67979;SDS011;54760;47.490;19.030;2022-12-07T08:08:36;14.18;;;9.13;;
67979;SDS011;54760;47.490;19.030;2022-12-07T08:11:04;19.48;;;12.60;;
67979;SDS011;54760;47.490;19.030;2022-12-07T08:13:30;16.27;;;9.77;;
67979;SDS011;54760;47.490;19.030;2022-12-07T08:15:56;14.30;;;10.23;;
67979;SDS011;54760;47.490;19.030;2022-12-07T08:18:21;14.85;;;9.35;;
67979;SDS011;54760;47.490;19.030;2022-12-07T08:20:46;13.68;;;9.68;;
67979;SDS011;54760;47.490;19.030;2022-12-07T08:23:12;14.18;;;9.65;;
67979;SDS011;54760;47.490;19.030;2022-12-07T08:25:38;15.80;;;9.73;;
67979;SDS011;54760;47.490;19.030;2022-12-07T08:28:03;15.48;;;10.25;;
67979;SDS011;54760;47.490;19.030;2022-12-07T08:30:29;19.10;;;9.98;;
67979;SDS011;54760;47.490;19.030;2022-12-07T08:32:55;19.83;;;9.57;;
67979;SDS011;54760;47.490;19.030;2022-12-07T08:35:21;13.95;;;10.10;;
67979;SDS011;54760;47.490;19.030;2022-12-07T08:37:47;14.07;;;10.20;;
67979;SDS011;54760;47.490;19.030;2022-12-07T08:40:12;20.25;;;10.73;;
67979;SDS011;54760;47.490;19.030;2022-12-07T08:42:41;16.55;;;10.30;;
67979;SDS011;54760;47.490;19.030;2022-12-07T08:45:08;17.58;;;10.02;;
67979;SDS011;54760;47.490;19.030;2022-12-07T08:47:36;13.45;;;10.13;;
67979;SDS011;54760;47.490;19.030;2022-12-07T08:50:04;14.18;;;10.13;;
67979;SDS011;54760;47.490;19.030;2022-12-07T08:52:33;13.18;;;9.43;;
67979;SDS011;54760;47.490;19.030;2022-12-07T08:55:00;16.55;;;10.75;;
67979;SDS011;54760;47.490;19.030;2022-12-07T08:57:27;14.87;;;9.95;;
67979;SDS011;54760;47.490;19.030;2022-12-07T08:59:53;14.02;;;9.10;;
67979;SDS011;54760;47.490;19.030;2022-12-07T09:02:19;14.73;;;9.30;;
67979;SDS011;54760;47.490;19.030;2022-12-07T09:04:45;13.13;;;9.45;;
67979;SDS011;54760;47.490;19.030;2022-12-07T09:07:10;17.75;;;10.52;;
67979;SDS011;54760;47.490;19.030;2022-12-07T09:09:35;12.70;;;8.77;;
67979;SDS011;54760;47.490;19.030;2022-12-07T09:12:01;13.77;;;9.15;;
67979;SDS011;54760;47.490;19.030;2022-12-07T09:14:27;10.93;;;7.75;;
67979;SDS011;54760;47.490;19.030;2022-12-07T09:16:52;13.45;;;8.70;;
67979;SDS011;54760;47.490;19.030;2022-12-07T09:19:19;10.93;;;8.27;;
67979;SDS011;54760;47.490;19.030;2022-12-07T09:21:44;13.15;;;8.32;;
67979;SDS011;54760;47.490;19.030;2022-12-07T09:24:11;9.93;;;7.68;;
67979;SDS011;54760;47.490;19.030;2022-12-07T09:26:37;10.85;;;7.53;;
67979;SDS011;54760;47.490;19.030;2022-12-07T09:29:04;8.75;;;6.40;;
67979;SDS011;54760;47.490;19.030;2022-12-07T09:31:29;10.88;;;7.28;;
67979;SDS011;54760;47.490;19.030;2022-12-07T09:33:55;11.00;;;7.40;;
67979;SDS011;54760;47.490;19.030;2022-12-07T09:36:23;7.68;;;5.60;;
67979;SDS011;54760;47.490;19.030;2022-12-07T09:38:49;9.32;;;6.97;;
67979;SDS011;54760;47.490;19.030;2022-12-07T09:41:15;9.13;;;5.03;;
67979;SDS011;54760;47.490;19.030;2022-12-07T09:43:41;5.85;;;4.90;;
67979;SDS011;54760;47.490;19.030;2022-12-07T09:46:08;10.00;;;5.60;;
67979;SDS011;54760;47.490;19.030;2022-12-07T09:48:38;6.57;;;4.93;;
67979;SDS011;54760;47.490;19.030;2022-12-07T09:51:18;7.35;;;4.70;;
67979;SDS011;54760;47.490;19.030;2022-12-07T09:53:46;6.35;;;5.05;;
67979;SDS011;54760;47.490;19.030;2022-12-07T09:56:13;6.57;;;4.55;;
67979;SDS011;54760;47.490;19.030;2022-12-07T09:58:40;7.28;;;5.37;;
67979;SDS011;54760;47.490;19.030;2022-12-07T10:03:33;6.75;;;4.60;;
67979;SDS011;54760;47.490;19.030;2022-12-07T10:06:02;8.00;;;5.10;;
67979;SDS011;54760;47.490;19.030;2022-12-07T10:08:28;5.85;;;4.55;;
67979;SDS011;54760;47.490;19.030;2022-12-07T10:10:55;6.37;;;4.57;;
67979;SDS011;54760;47.490;19.030;2022-12-07T10:13:36;6.25;;;4.72;;
67979;SDS011;54760;47.490;19.030;2022-12-07T10:18:51;6.20;;;4.72;;
67979;SDS011;54760;47.490;19.030;2022-12-07T10:21:18;7.07;;;4.93;;
67979;SDS011;54760;47.490;19.030;2022-12-07T10:24:00;8.45;;;5.30;;
67979;SDS011;54760;47.490;19.030;2022-12-07T10:26:34;8.02;;;5.78;;
67979;SDS011;54760;47.490;19.030;2022-12-07T10:32:32;7.05;;;5.20;;
67979;SDS011;54760;47.490;19.030;2022-12-07T10:35:15;6.47;;;4.95;;
67979;SDS011;54760;47.490;19.030;2022-12-07T10:37:46;8.77;;;5.45;;
67979;SDS011;54760;47.490;19.030;2022-12-07T10:40:32;6.72;;;5.32;;
67979;SDS011;54760;47.490;19.030;2022-12-07T10:43:03;6.70;;;4.62;;
67979;SDS011;54760;47.490;19.030;2022-12-07T10:45:31;7.43;;;4.78;;
67979;SDS011;54760;47.490;19.030;2022-12-07T11:10:47;8.25;;;5.45;;
67979;SDS011;54760;47.490;19.030;2022-12-07T11:13:32;6.55;;;5.05;;
67979;SDS011;54760;47.490;19.030;2022-12-07T11:28:16;10.30;;;4.80;;
67979;SDS011;54760;47.490;19.030;2022-12-07T11:33:44;7.60;;;5.65;;
67979;SDS011;54760;47.490;19.030;2022-12-07T11:39:00;7.62;;;5.45;;
67979;SDS011;54760;47.490;19.030;2022-12-07T11:41:45;7.93;;;5.62;;
67979;SDS011;54760;47.490;19.030;2022-12-07T11:47:00;8.93;;;5.62;;
67979;SDS011;54760;47.490;19.030;2022-12-07T11:49:39;9.85;;;5.68;;
67979;SDS011;54760;47.490;19.030;2022-12-07T11:52:05;8.80;;;6.12;;
67979;SDS011;54760;47.490;19.030;2022-12-07T11:54:47;7.80;;;5.68;;
67979;SDS011;54760;47.490;19.030;2022-12-07T11:57:28;7.37;;;5.93;;
67979;SDS011;54760;47.490;19.030;2022-12-07T12:00:12;7.37;;;5.82;;
67979;SDS011;54760;47.490;19.030;2022-12-07T12:02:46;10.02;;;5.93;;
67979;SDS011;54760;47.490;19.030;2022-12-07T12:05:23;8.40;;;5.90;;
67979;SDS011;54760;47.490;19.030;2022-12-07T12:13:58;8.23;;;5.70;;
67979;SDS011;54760;47.490;19.030;2022-12-07T12:21:45;9.48;;;5.45;;
67979;SDS011;54760;47.490;19.030;2022-12-07T12:24:22;9.13;;;5.40;;
67979;SDS011;54760;47.490;19.030;2022-12-07T12:26:55;8.57;;;5.47;;
67979;SDS011;54760;47.490;19.030;2022-12-07T12:29:28;9.32;;;5.40;;
67979;SDS011;54760;47.490;19.030;2022-12-07T12:32:18;7.55;;;5.12;;
67979;SDS011;54760;47.490;19.030;2022-12-07T12:45:22;7.57;;;4.95;;
67979;SDS011;54760;47.490;19.030;2022-12-07T12:47:56;6.93;;;5.28;;
67979;SDS011;54760;47.490;19.030;2022-12-07T12:50:31;7.40;;;4.70;;
67979;SDS011;54760;47.490;19.030;2022-12-07T12:53:03;8.07;;;5.35;;
67979;SDS011;54760;47.490;19.030;2022-12-07T13:00:42;7.57;;;6.00;;
67979;SDS011;54760;47.490;19.030;2022-12-07T13:03:16;7.47;;;5.68;;
67979;SDS011;54760;47.490;19.030;2022-12-07T13:06:16;7.30;;;5.30;;
67979;SDS011;54760;47.490;19.030;2022-12-07T13:08:44;7.62;;;5.80;;
67979;SDS011;54760;47.490;19.030;2022-12-07T13:11:20;8.80;;;5.80;;
67979;SDS011;54760;47.490;19.030;2022-12-07T13:14:35;11.00;;;6.35;;
67979;SDS011;54760;47.490;19.030;2022-12-07T13:16:58;8.15;;;5.72;;
67979;SDS011;54760;47.490;19.030;2022-12-07T13:19:48;7.18;;;5.07;;
67979;SDS011;54760;47.490;19.030;2022-12-07T13:25:12;5.70;;;4.50;;
67979;SDS011;54760;47.490;19.030;2022-12-07T13:27:51;6.50;;;4.75;;
67979;SDS011;54760;47.490;19.030;2022-12-07T13:30:22;7.75;;;5.10;;
67979;SDS011;54760;47.490;19.030;2022-12-07T13:32:54;6.22;;;4.68;;
67979;SDS011;54760;47.490;19.030;2022-12-07T13:35:30;6.78;;;5.05;;
67979;SDS011;54760;47.490;19.030;2022-12-07T13:37:58;7.37;;;4.97;;
67979;SDS011;54760;47.490;19.030;2022-12-07T13:40:24;6.35;;;4.60;;
67979;SDS011;54760;47.490;19.030;2022-12-07T13:43:02;7.82;;;5.22;;
67979;SDS011;54760;47.490;19.030;2022-12-07T13:45:30;6.72;;;4.95;;
67979;SDS011;54760;47.490;19.030;2022-12-07T13:50:59;12.40;;;6.35;;
67979;SDS011;54760;47.490;19.030;2022-12-07T13:53:26;10.02;;;5.78;;
67979;SDS011;54760;47.490;19.030;2022-12-07T13:55:58;9.43;;;5.40;;
67979;SDS011;54760;47.490;19.030;2022-12-07T13:58:26;8.73;;;6.03;;
67979;SDS011;54760;47.490;19.030;2022-12-07T14:00:54;7.12;;;5.32;;
67979;SDS011;54760;47.490;19.030;2022-12-07T14:03:26;8.90;;;6.43;;
67979;SDS011;54760;47.490;19.030;2022-12-07T14:06:11;9.88;;;5.68;;
67979;SDS011;54760;47.490;19.030;2022-12-07T14:09:25;10.95;;;6.07;;
67979;SDS011;54760;47.490;19.030;2022-12-07T14:11:48;8.55;;;5.95;;
67979;SDS011;54760;47.490;19.030;2022-12-07T14:14:19;8.77;;;5.55;;
67979;SDS011;54760;47.490;19.030;2022-12-07T14:17:01;10.20;;;6.85;;
67979;SDS011;54760;47.490;19.030;2022-12-07T14:22:22;9.02;;;6.40;;
67979;SDS011;54760;47.490;19.030;2022-12-07T14:27:49;10.20;;;6.15;;
67979;SDS011;54760;47.490;19.030;2022-12-07T14:30:21;10.10;;;6.90;;
67979;SDS011;54760;47.490;19.030;2022-12-07T14:32:48;11.00;;;6.45;;
67979;SDS011;54760;47.490;19.030;2022-12-07T14:35:18;8.65;;;6.47;;
67979;SDS011;54760;47.490;19.030;2022-12-07T14:37:45;11.18;;;7.03;;
67979;SDS011;54760;47.490;19.030;2022-12-07T14:40:22;12.32;;;7.03;;
67979;SDS011;54760;47.490;19.030;2022-12-07T14:42:50;12.77;;;6.70;;
67979;SDS011;54760;47.490;19.030;2022-12-07T14:45:20;16.12;;;7.45;;
67979;SDS011;54760;47.490;19.030;2022-12-07T14:47:47;10.88;;;7.43;;
67979;SDS011;54760;47.490;19.030;2022-12-07T14:50:13;14.07;;;6.87;;
67979;SDS011;54760;47.490;19.030;2022-12-07T14:52:40;13.13;;;7.30;;
67979;SDS011;54760;47.490;19.030;2022-12-07T14:55:13;12.25;;;7.15;;
67979;SDS011;54760;47.490;19.030;2022-12-07T14:57:41;10.80;;;7.00;;
67979;SDS011;54760;47.490;19.030;2022-12-07T15:00:06;17.30;;;7.65;;
67979;SDS011;54760;47.490;19.030;2022-12-07T15:02:33;13.00;;;6.95;;
67979;SDS011;54760;47.490;19.030;2022-12-07T15:04:58;13.40;;;7.75;;
67979;SDS011;54760;47.490;19.030;2022-12-07T15:07:23;10.05;;;7.15;;
67979;SDS011;54760;47.490;19.030;2022-12-07T15:09:50;17.98;;;7.72;;
67979;SDS011;54760;47.490;19.030;2022-12-07T15:12:15;14.32;;;7.80;;
67979;SDS011;54760;47.490;19.030;2022-12-07T15:14:40;15.82;;;7.72;;
67979;SDS011;54760;47.490;19.030;2022-12-07T15:17:06;15.32;;;8.25;;
67979;SDS011;54760;47.490;19.030;2022-12-07T15:19:34;16.02;;;7.80;;
67979;SDS011;54760;47.490;19.030;2022-12-07T15:21:59;12.85;;;8.02;;
67979;SDS011;54760;47.490;19.030;2022-12-07T15:24:25;15.05;;;7.53;;
67979;SDS011;54760;47.490;19.030;2022-12-07T15:26:51;12.32;;;8.55;;
67979;SDS011;54760;47.490;19.030;2022-12-07T15:29:17;13.43;;;7.95;;
67979;SDS011;54760;47.490;19.030;2022-12-07T15:31:42;14.43;;;7.85;;
67979;SDS011;54760;47.490;19.030;2022-12-07T15:34:08;14.02;;;8.60;;
67979;SDS011;54760;47.490;19.030;2022-12-07T15:36:34;13.30;;;7.47;;
67979;SDS011;54760;47.490;19.030;2022-12-07T15:38:59;13.82;;;7.47;;
67979;SDS011;54760;47.490;19.030;2022-12-07T15:41:25;15.02;;;7.60;;
67979;SDS011;54760;47.490;19.030;2022-12-07T15:43:51;19.25;;;7.95;;
67979;SDS011;54760;47.490;19.030;2022-12-07T15:46:36;16.25;;;9.05;;
67979;SDS011;54760;47.490;19.030;2022-12-07T15:49:04;13.30;;;8.10;;
67979;SDS011;54760;47.490;19.030;2022-12-07T15:51:33;12.82;;;8.55;;
67979;SDS011;54760;47.490;19.030;2022-12-07T15:53:59;14.75;;;8.10;;
67979;SDS011;54760;47.490;19.030;2022-12-07T15:56:24;11.23;;;7.43;;
67979;SDS011;54760;47.490;19.030;2022-12-07T15:58:50;12.65;;;8.27;;
67979;SDS011;54760;47.490;19.030;2022-12-07T16:01:17;11.88;;;7.35;;
67979;SDS011;54760;47.490;19.030;2022-12-07T16:03:43;12.23;;;7.60;;
67979;SDS011;54760;47.490;19.030;2022-12-07T16:06:10;11.52;;;6.75;;
67979;SDS011;54760;47.490;19.030;2022-12-07T16:08:35;13.30;;;7.68;;
67979;SDS011;54760;47.490;19.030;2022-12-07T16:11:04;12.43;;;8.13;;
67979;SDS011;54760;47.490;19.030;2022-12-07T16:13:30;15.85;;;8.13;;
67979;SDS011;54760;47.490;19.030;2022-12-07T16:15:56;16.30;;;7.90;;
67979;SDS011;54760;47.490;19.030;2022-12-07T16:18:21;9.65;;;7.00;;
67979;SDS011;54760;47.490;19.030;2022-12-07T16:20:47;10.20;;;6.68;;
67979;SDS011;54760;47.490;19.030;2022-12-07T16:23:13;9.63;;;6.40;;
67979;SDS011;54760;47.490;19.030;2022-12-07T16:25:39;12.20;;;6.65;;
67979;SDS011;54760;47.490;19.030;2022-12-07T16:28:04;13.00;;;8.45;;
67979;SDS011;54760;47.490;19.030;2022-12-07T16:30:29;12.90;;;8.50;;
67979;SDS011;54760;47.490;19.030;2022-12-07T16:32:55;11.88;;;8.40;;
67979;SDS011;54760;47.490;19.030;2022-12-07T16:35:20;13.23;;;8.63;;
67979;SDS011;54760;47.490;19.030;2022-12-07T16:37:45;14.18;;;8.82;;
67979;SDS011;54760;47.490;19.030;2022-12-07T16:40:11;17.12;;;8.98;;
67979;SDS011;54760;47.490;19.030;2022-12-07T16:42:37;18.45;;;8.95;;
67979;SDS011;54760;47.490;19.030;2022-12-07T16:45:02;16.58;;;9.30;;